Time;durP1;ratioP1;P1;durP2;ratioP2;P2;SDS_P1;SDS_P2;PMS_P1;PMS_P2;Temp;Humidity;BMP_temperature;BMP_pressure;BME280_temperature;BME280_humidity;BME280_pressure;Samples;Min_cycle;Max_cycle;Signal;HPM_P1;HPM_P2
2024/04/09 00:00:26;;;;;;;26.40;6.13;;;;;;;;;;5419576;26;19992;-57
2024/04/09 00:02:51;;;;;;;31.20;5.90;;;;;;;;;;5419148;26;20003;-58
2024/04/09 00:05:16;;;;;;;32.97;5.07;;;;;;;;;;5419017;26;19995;-58
2024/04/09 00:07:43;;;;;;;25.27;5.32;;;;;;;;;;5410831;26;20000;-59
2024/04/09 00:10:08;;;;;;;31.83;5.13;;;;;;;;;;5408967;26;20000;-59
2024/04/09 00:12:35;;;;;;;33.97;6.18;;;;;;;;;;5419020;26;20408;-58
2024/04/09 00:15:00;;;;;;;21.20;5.50;;;;;;;;;;5419122;26;20000;-57
2024/04/09 00:17:34;;;;;;;30.33;5.78;;;;;;;;;;5418564;26;20351;-57
2024/04/09 00:19:59;;;;;;;29.25;5.70;;;;;;;;;;5420273;26;20441;-56
2024/04/09 00:22:27;;;;;;;22.92;5.18;;;;;;;;;;5421784;26;20003;-55
2024/04/09 00:24:52;;;;;;;26.60;5.85;;;;;;;;;;5422351;26;20007;-56
2024/04/09 00:27:18;;;;;;;38.17;5.88;;;;;;;;;;5422464;26;20062;-56
2024/04/09 00:29:44;;;;;;;27.27;5.88;;;;;;;;;;5422598;26;20347;-56
2024/04/09 00:32:09;;;;;;;29.30;6.05;;;;;;;;;;5422621;26;20000;-57
2024/04/09 00:34:34;;;;;;;33.83;5.72;;;;;;;;;;5422533;26;20011;-57
2024/04/09 00:36:59;;;;;;;27.08;5.43;;;;;;;;;;5419622;26;20072;-57
2024/04/09 00:39:27;;;;;;;27.92;5.28;;;;;;;;;;5422599;26;20118;-57
2024/04/09 00:41:53;;;;;;;26.55;5.88;;;;;;;;;;5422507;26;19999;-56
2024/04/09 00:44:21;;;;;;;30.13;5.45;;;;;;;;;;5422382;26;20007;-56
2024/04/09 00:46:47;;;;;;;29.10;5.75;;;;;;;;;;5380534;26;20397;-56
2024/04/09 00:49:13;;;;;;;27.60;5.97;;;;;;;;;;5386633;26;19996;-57
2024/04/09 00:51:39;;;;;;;31.05;6.47;;;;;;;;;;5384840;26;19993;-53
2024/04/09 00:54:05;;;;;;;24.05;5.63;;;;;;;;;;5386734;26;20004;-57
2024/04/09 00:56:30;;;;;;;22.60;5.55;;;;;;;;;;5416733;26;20012;-57
2024/04/09 00:58:55;;;;;;;23.65;6.05;;;;;;;;;;5421984;26;20374;-55
2024/04/09 01:01:20;;;;;;;25.60;6.78;;;;;;;;;;5421806;26;19991;-57
2024/04/09 01:03:48;;;;;;;27.58;5.45;;;;;;;;;;5421677;26;19987;-57
2024/04/09 01:06:13;;;;;;;20.00;5.50;;;;;;;;;;5421742;26;20038;-57
2024/04/09 01:08:38;;;;;;;25.63;5.47;;;;;;;;;;5421540;26;20011;-57
2024/04/09 01:11:03;;;;;;;23.63;5.20;;;;;;;;;;5419561;26;20023;-56
2024/04/09 01:13:29;;;;;;;24.65;5.53;;;;;;;;;;5421577;26;20012;-56
2024/04/09 01:15:54;;;;;;;19.38;4.93;;;;;;;;;;5421102;26;20409;-57
2024/04/09 01:18:19;;;;;;;23.58;5.57;;;;;;;;;;5421117;26;20007;-56
2024/04/09 01:20:45;;;;;;;30.15;5.80;;;;;;;;;;5419789;26;20304;-57
2024/04/09 01:23:11;;;;;;;26.98;5.82;;;;;;;;;;5421564;26;20002;-57
2024/04/09 01:25:37;;;;;;;22.10;5.28;;;;;;;;;;5421308;26;20010;-55
2024/04/09 01:28:04;;;;;;;33.45;5.28;;;;;;;;;;5420957;26;20003;-57
2024/04/09 01:30:29;;;;;;;28.50;4.90;;;;;;;;;;5421172;26;20280;-56
2024/04/09 01:32:54;;;;;;;18.80;4.65;;;;;;;;;;5420868;26;19995;-57
2024/04/09 01:35:19;;;;;;;19.00;4.57;;;;;;;;;;5421156;26;19991;-56
2024/04/09 01:37:45;;;;;;;28.40;5.45;;;;;;;;;;5420811;26;19995;-57
2024/04/09 01:40:10;;;;;;;28.13;5.18;;;;;;;;;;5389704;26;20028;-56
2024/04/09 01:42:36;;;;;;;28.77;5.95;;;;;;;;;;5418805;26;20016;-56
2024/04/09 01:45:01;;;;;;;23.95;5.03;;;;;;;;;;5420851;26;19991;-57
2024/04/09 01:47:26;;;;;;;29.45;5.50;;;;;;;;;;5420851;26;19996;-55
2024/04/09 01:49:52;;;;;;;26.38;5.38;;;;;;;;;;5420781;26;20057;-57
2024/04/09 01:52:17;;;;;;;25.33;5.63;;;;;;;;;;5421005;26;20010;-56
2024/04/09 01:54:43;;;;;;;28.25;6.15;;;;;;;;;;5418704;26;20004;-55
2024/04/09 01:57:09;;;;;;;24.27;5.47;;;;;;;;;;5421140;26;20000;-56
2024/04/09 01:59:34;;;;;;;21.83;5.18;;;;;;;;;;5420508;26;20387;-57
2024/04/09 02:01:59;;;;;;;25.83;5.35;;;;;;;;;;5420595;26;20304;-57
2024/04/09 02:04:26;;;;;;;22.35;5.75;;;;;;;;;;5421134;26;20296;-56
2024/04/09 02:06:51;;;;;;;28.55;5.63;;;;;;;;;;5418667;26;20000;-56
2024/04/09 02:09:18;;;;;;;22.63;4.68;;;;;;;;;;5420917;26;20014;-57
2024/04/09 02:11:43;;;;;;;27.70;5.53;;;;;;;;;;5420672;26;19995;-57
2024/04/09 02:14:08;;;;;;;21.45;5.82;;;;;;;;;;5420861;26;19999;-57
2024/04/09 02:16:33;;;;;;;31.85;5.78;;;;;;;;;;5420156;26;20004;-56
2024/04/09 02:18:59;;;;;;;21.73;4.68;;;;;;;;;;5420037;26;19996;-56
2024/04/09 02:21:25;;;;;;;20.38;4.78;;;;;;;;;;5420467;26;19999;-57
2024/04/09 02:23:53;;;;;;;23.65;4.72;;;;;;;;;;5420095;26;20387;-56
2024/04/09 02:26:19;;;;;;;16.15;4.30;;;;;;;;;;5418081;26;20003;-57
2024/04/09 02:28:44;;;;;;;20.55;4.55;;;;;;;;;;5420489;26;19995;-57
2024/04/09 02:31:09;;;;;;;23.58;5.28;;;;;;;;;;5420722;26;20061;-56
2024/04/09 02:33:34;;;;;;;18.30;4.80;;;;;;;;;;5420683;26;20340;-56
2024/04/09 02:36:01;;;;;;;24.08;6.18;;;;;;;;;;5420346;26;20469;-57
2024/04/09 02:38:27;;;;;;;17.17;4.32;;;;;;;;;;5420624;26;20003;-56
2024/04/09 02:40:53;;;;;;;19.13;4.25;;;;;;;;;;5420427;26;20007;-57
2024/04/09 02:43:19;;;;;;;23.67;4.70;;;;;;;;;;5419999;26;19999;-57
2024/04/09 02:45:44;;;;;;;19.58;4.90;;;;;;;;;;5420255;26;20020;-56
2024/04/09 02:48:09;;;;;;;23.95;4.43;;;;;;;;;;5419402;26;20046;-56
2024/04/09 02:50:35;;;;;;;18.05;4.72;;;;;;;;;;5419943;26;19999;-56
2024/04/09 02:53:00;;;;;;;19.88;4.47;;;;;;;;;;5419888;26;19996;-56
2024/04/09 02:55:26;;;;;;;18.92;4.70;;;;;;;;;;5419984;26;20008;-57
2024/04/09 02:57:51;;;;;;;18.20;4.28;;;;;;;;;;5419901;26;20419;-57
2024/04/09 03:00:19;;;;;;;16.58;3.95;;;;;;;;;;5420752;26;20000;-57
2024/04/09 03:02:49;;;;;;;15.60;4.35;;;;;;;;;;5403143;21;20008;-87
2024/04/09 03:05:14;;;;;;;16.20;4.53;;;;;;;;;;5384417;26;19996;-87
2024/04/09 03:07:39;;;;;;;19.15;3.95;;;;;;;;;;5382856;26;20039;-86
2024/04/09 03:10:04;;;;;;;21.85;4.63;;;;;;;;;;5384783;26;20326;-86
2024/04/09 03:12:31;;;;;;;20.30;4.30;;;;;;;;;;5382458;26;20460;-86
2024/04/09 03:14:56;;;;;;;20.80;5.00;;;;;;;;;;5384784;26;20004;-86
2024/04/09 03:17:23;;;;;;;16.65;4.47;;;;;;;;;;5384750;26;20336;-86
2024/04/09 03:19:48;;;;;;;23.40;5.05;;;;;;;;;;5383038;26;20011;-86
2024/04/09 03:22:14;;;;;;;21.17;5.20;;;;;;;;;;5384976;26;20405;-86
2024/04/09 03:24:39;;;;;;;26.23;5.95;;;;;;;;;;5382631;26;20405;-85
2024/04/09 03:27:04;;;;;;;22.13;5.07;;;;;;;;;;5382562;26;20405;-87
2024/04/09 03:29:29;;;;;;;18.75;4.40;;;;;;;;;;5385454;26;20019;-86
2024/04/09 03:31:56;;;;;;;16.95;4.50;;;;;;;;;;5386370;26;20296;-86
2024/04/09 03:34:22;;;;;;;20.85;4.25;;;;;;;;;;5385870;26;20008;-87
2024/04/09 03:36:48;;;;;;;18.58;4.45;;;;;;;;;;5386078;26;20000;-86
2024/04/09 03:39:14;;;;;;;22.38;5.55;;;;;;;;;;5385631;26;20299;-86
2024/04/09 03:41:39;;;;;;;20.02;4.90;;;;;;;;;;5386012;26;20063;-86
2024/04/09 03:44:04;;;;;;;23.13;5.05;;;;;;;;;;5385722;26;19996;-87
2024/04/09 03:46:29;;;;;;;19.92;4.43;;;;;;;;;;5383650;26;19992;-87
2024/04/09 03:48:55;;;;;;;18.77;4.18;;;;;;;;;;5385805;26;20008;-86
2024/04/09 03:51:21;;;;;;;17.42;4.22;;;;;;;;;;5384370;26;20011;-86
2024/04/09 03:53:47;;;;;;;19.88;4.47;;;;;;;;;;5384308;26;20028;-86
2024/04/09 03:56:13;;;;;;;25.25;4.72;;;;;;;;;;5383440;26;20479;-86
2024/04/09 03:58:41;;;;;;;26.13;5.45;;;;;;;;;;5383798;26;20424;-86
2024/04/09 04:01:08;;;;;;;24.17;5.15;;;;;;;;;;5380318;21;20017;-55
2024/04/09 04:03:35;;;;;;;20.40;4.60;;;;;;;;;;5279494;27;20013;-55
2024/04/09 04:06:02;;;;;;;17.58;3.72;;;;;;;;;;5280985;27;20017;-55
2024/04/09 04:08:33;;;;;;;15.35;3.58;;;;;;;;;;5280749;27;20065;-55
2024/04/09 04:11:01;;;;;;;17.80;4.00;;;;;;;;;;5280867;27;20003;-56
2024/04/09 04:13:29;;;;;;;18.17;3.83;;;;;;;;;;5280914;27;20011;-56
2024/04/09 04:16:07;;;;;;;17.98;3.63;;;;;;;;;;5289617;27;20435;-56
2024/04/09 04:18:40;;;;;;;16.25;3.92;;;;;;;;;;5314692;27;20013;-56
2024/04/09 04:21:08;;;;;;;13.13;3.40;;;;;;;;;;5314697;27;20296;-55
2024/04/09 04:23:34;;;;;;;19.60;4.20;;;;;;;;;;5314966;27;20101;-54
2024/04/09 04:26:09;;;;;;;18.55;3.70;;;;;;;;;;5308992;27;20003;-55
2024/04/09 04:28:36;;;;;;;16.95;3.30;;;;;;;;;;5280539;27;20072;-52
2024/04/09 04:31:04;;;;;;;16.13;3.35;;;;;;;;;;5296656;27;20041;-54
2024/04/09 04:33:31;;;;;;;14.90;3.63;;;;;;;;;;5315124;27;20001;-51
2024/04/09 04:35:57;;;;;;;15.60;3.65;;;;;;;;;;5311561;27;20347;-55
2024/04/09 04:38:25;;;;;;;14.02;3.67;;;;;;;;;;5280767;27;19998;-54
2024/04/09 04:40:51;;;;;;;13.20;2.88;;;;;;;;;;5280715;27;20009;-56
2024/04/09 04:43:18;;;;;;;13.00;2.97;;;;;;;;;;5280641;27;19998;-55
2024/04/09 04:45:45;;;;;;;12.10;2.90;;;;;;;;;;5280812;27;20002;-51
2024/04/09 04:48:12;;;;;;;11.65;2.47;;;;;;;;;;5313702;27;20005;-53
2024/04/09 04:50:39;;;;;;;9.40;2.30;;;;;;;;;;5288217;27;20021;-55
2024/04/09 04:53:05;;;;;;;7.10;2.15;;;;;;;;;;5280527;27;20009;-52
2024/04/09 04:55:32;;;;;;;8.77;2.60;;;;;;;;;;5280863;27;20384;-54
2024/04/09 04:58:03;;;;;;;15.13;2.72;;;;;;;;;;5279970;27;20316;-53
2024/04/09 05:00:30;;;;;;;9.00;2.50;;;;;;;;;;5278450;27;19994;-51
2024/04/09 05:02:57;;;;;;;14.52;2.78;;;;;;;;;;5280432;27;20314;-54
2024/04/09 05:05:24;;;;;;;10.07;2.25;;;;;;;;;;5290041;27;20010;-56
2024/04/09 05:07:50;;;;;;;12.40;2.40;;;;;;;;;;5315390;27;20072;-55
2024/04/09 05:10:19;;;;;;;13.45;3.00;;;;;;;;;;5310240;27;20006;-53
2024/04/09 05:12:47;;;;;;;9.45;2.22;;;;;;;;;;5283084;27;20070;-52
2024/04/09 05:15:13;;;;;;;7.07;2.03;;;;;;;;;;5281454;27;20013;-51
2024/04/09 05:17:41;;;;;;;7.45;2.22;;;;;;;;;;5294241;27;20418;-54
2024/04/09 05:20:11;;;;;;;7.93;1.80;;;;;;;;;;5302765;27;20268;-52
2024/04/09 05:22:41;;;;;;;11.38;2.45;;;;;;;;;;5282924;27;20295;-51
2024/04/09 05:25:11;;;;;;;8.25;2.00;;;;;;;;;;5283229;27;20046;-51
2024/04/09 05:27:39;;;;;;;7.75;2.15;;;;;;;;;;5285499;27;20002;-52
2024/04/09 05:30:06;;;;;;;9.68;2.22;;;;;;;;;;5283391;27;20026;-51
2024/04/09 05:32:37;;;;;;;12.07;2.75;;;;;;;;;;5285229;27;20014;-51
2024/04/09 05:35:04;;;;;;;9.00;2.63;;;;;;;;;;5283218;27;19999;-52
2024/04/09 05:37:30;;;;;;;8.23;2.17;;;;;;;;;;5309505;27;20045;-52
2024/04/09 05:39:58;;;;;;;9.63;2.20;;;;;;;;;;5283368;27;19998;-54
2024/04/09 05:42:24;;;;;;;9.35;2.22;;;;;;;;;;5283265;27;20288;-57
2024/04/09 05:44:51;;;;;;;8.90;2.38;;;;;;;;;;5297131;27;19998;-57
2024/04/09 05:47:17;;;;;;;7.03;1.80;;;;;;;;;;5312651;27;20022;-55
2024/04/09 05:49:44;;;;;;;10.73;2.10;;;;;;;;;;5282944;27;20006;-57
2024/04/09 05:52:10;;;;;;;9.40;1.90;;;;;;;;;;5282976;27;20010;-57
2024/04/09 05:54:45;;;;;;;7.38;2.05;;;;;;;;;;5282903;27;20002;-57
2024/04/09 05:57:11;;;;;;;11.02;2.22;;;;;;;;;;5284787;27;20061;-56
2024/04/09 05:59:38;;;;;;;5.68;1.90;;;;;;;;;;5317301;27;19997;-57
2024/04/09 06:02:04;;;;;;;6.22;1.88;;;;;;;;;;5316853;27;20090;-57
2024/04/09 06:04:31;;;;;;;9.52;2.28;;;;;;;;;;5317153;27;19998;-53
2024/04/09 06:06:58;;;;;;;6.70;2.03;;;;;;;;;;5316753;27;20004;-56
2024/04/09 06:09:24;;;;;;;9.10;2.83;;;;;;;;;;5283200;27;20074;-56
2024/04/09 06:11:51;;;;;;;4.85;1.60;;;;;;;;;;5282659;27;20010;-53
2024/04/09 06:14:18;;;;;;;4.25;1.38;;;;;;;;;;5282637;27;19998;-57
2024/04/09 06:16:44;;;;;;;8.77;2.05;;;;;;;;;;5282317;27;20077;-56
2024/04/09 06:19:11;;;;;;;6.43;1.60;;;;;;;;;;5311913;27;20005;-54
2024/04/09 06:21:37;;;;;;;5.47;1.23;;;;;;;;;;5316141;27;20009;-56
2024/04/09 06:24:03;;;;;;;6.50;1.85;;;;;;;;;;5316473;27;20010;-53
2024/04/09 06:26:30;;;;;;;4.35;1.58;;;;;;;;;;5316960;27;20510;-55
2024/04/09 06:28:56;;;;;;;5.80;1.67;;;;;;;;;;5292584;27;20003;-57
2024/04/09 06:31:22;;;;;;;5.05;1.65;;;;;;;;;;5282192;27;20303;-53
2024/04/09 06:33:50;;;;;;;4.75;1.50;;;;;;;;;;5312542;27;20006;-52
2024/04/09 06:36:17;;;;;;;5.13;1.92;;;;;;;;;;5316750;27;20002;-55
2024/04/09 06:38:43;;;;;;;6.63;1.60;;;;;;;;;;5315606;27;20018;-57
2024/04/09 06:41:10;;;;;;;6.40;1.60;;;;;;;;;;5316642;27;20288;-57
2024/04/09 06:43:37;;;;;;;6.85;1.98;;;;;;;;;;5316507;27;19997;-54
2024/04/09 06:46:04;;;;;;;4.68;1.58;;;;;;;;;;5316754;27;20288;-57
2024/04/09 06:48:31;;;;;;;5.85;1.55;;;;;;;;;;5297267;27;20002;-56
2024/04/09 06:50:56;;;;;;;4.95;1.20;;;;;;;;;;5280491;27;20006;-56
2024/04/09 06:53:23;;;;;;;4.00;1.20;;;;;;;;;;5281820;27;20065;-57
2024/04/09 06:55:49;;;;;;;5.75;1.23;;;;;;;;;;5282170;27;20002;-58
2024/04/09 06:58:14;;;;;;;3.15;1.13;;;;;;;;;;5307981;27;20017;-57
2024/04/09 07:00:39;;;;;;;5.38;1.10;;;;;;;;;;5316041;27;20418;-56
2024/04/09 07:03:05;;;;;;;5.90;1.30;;;;;;;;;;5315982;27;20037;-57
2024/04/09 07:05:30;;;;;;;6.68;1.40;;;;;;;;;;5315951;27;20005;-56
2024/04/09 07:07:56;;;;;;;4.90;1.38;;;;;;;;;;5293835;27;20017;-56
2024/04/09 07:10:22;;;;;;;4.72;1.30;;;;;;;;;;5301781;27;20005;-55
2024/04/09 07:12:48;;;;;;;5.38;1.00;;;;;;;;;;5282559;27;20332;-53
2024/04/09 07:15:15;;;;;;;5.30;1.20;;;;;;;;;;5282009;27;20069;-56
2024/04/09 07:17:41;;;;;;;4.10;1.10;;;;;;;;;;5285082;27;20018;-53
2024/04/09 07:20:08;;;;;;;4.65;1.08;;;;;;;;;;5300683;27;20018;-51
2024/04/09 07:22:33;;;;;;;5.85;1.48;;;;;;;;;;5288362;27;21887;-53
2024/04/09 07:24:58;;;;;;;3.70;1.10;;;;;;;;;;5296146;27;20002;-53
2024/04/09 07:27:24;;;;;;;8.30;1.45;;;;;;;;;;5281658;27;19998;-52
2024/04/09 07:29:49;;;;;;;6.13;1.30;;;;;;;;;;5278617;27;20003;-53
2024/04/09 07:32:14;;;;;;;5.90;1.30;;;;;;;;;;5285056;27;19994;-53
2024/04/09 07:34:43;;;;;;;8.20;1.50;;;;;;;;;;5316048;27;19998;-55
2024/04/09 07:37:08;;;;;;;4.63;1.35;;;;;;;;;;5315622;27;19997;-53
2024/04/09 07:39:34;;;;;;;6.63;1.80;;;;;;;;;;5314810;27;20073;-53
2024/04/09 07:41:59;;;;;;;7.60;2.58;;;;;;;;;;5315235;27;20002;-54
2024/04/09 07:44:24;;;;;;;6.70;1.45;;;;;;;;;;5301707;27;20312;-53
2024/04/09 07:46:50;;;;;;;10.65;2.08;;;;;;;;;;5303615;27;20010;-52
2024/04/09 07:49:15;;;;;;;8.02;2.05;;;;;;;;;;5305982;27;20065;-56
2024/04/09 07:51:41;;;;;;;7.53;1.95;;;;;;;;;;5315020;27;20037;-55
2024/04/09 07:54:06;;;;;;;5.38;1.85;;;;;;;;;;5315286;27;20077;-53
2024/04/09 07:56:31;;;;;;;5.45;1.35;;;;;;;;;;5315370;27;20012;-52
2024/04/09 07:58:57;;;;;;;6.22;1.70;;;;;;;;;;5315330;27;20005;-55
2024/04/09 08:01:22;;;;;;;5.13;1.35;;;;;;;;;;5293084;27;19998;-56
2024/04/09 08:03:47;;;;;;;6.85;1.50;;;;;;;;;;5278926;27;19995;-56
2024/04/09 08:06:13;;;;;;;6.53;1.42;;;;;;;;;;5280729;27;20292;-57
2024/04/09 08:08:38;;;;;;;4.53;1.25;;;;;;;;;;5306161;27;20039;-56
2024/04/09 08:11:07;;;;;;;6.75;1.50;;;;;;;;;;5300733;27;20006;-54
2024/04/09 08:13:32;;;;;;;9.88;1.52;;;;;;;;;;5314744;27;19998;-56
2024/04/09 08:15:57;;;;;;;6.85;1.42;;;;;;;;;;5314656;27;19998;-56
2024/04/09 08:18:24;;;;;;;5.68;1.70;;;;;;;;;;5314551;27;19998;-57
2024/04/09 08:20:49;;;;;;;6.35;1.55;;;;;;;;;;5304596;27;20007;-57
2024/04/09 08:23:16;;;;;;;8.20;1.70;;;;;;;;;;5280508;27;20002;-56
2024/04/09 08:25:42;;;;;;;6.22;1.15;;;;;;;;;;5280587;27;20408;-57
2024/04/09 08:28:07;;;;;;;5.88;1.33;;;;;;;;;;5280393;27;19998;-56
2024/04/09 08:30:33;;;;;;;6.05;1.17;;;;;;;;;;5285695;27;20415;-56
2024/04/09 08:32:58;;;;;;;10.70;1.77;;;;;;;;;;5314678;27;19998;-55
2024/04/09 08:35:23;;;;;;;11.27;1.52;;;;;;;;;;5315013;27;20009;-56
2024/04/09 08:37:48;;;;;;;5.85;1.30;;;;;;;;;;5315070;27;20004;-56
2024/04/09 08:40:18;;;;;;;6.63;1.73;;;;;;;;;;5314428;27;20064;-56
2024/04/09 08:42:44;;;;;;;5.88;1.27;;;;;;;;;;5283539;27;20030;-56
2024/04/09 08:45:14;;;;;;;9.02;2.42;;;;;;;;;;5283877;27;19998;-56
2024/04/09 08:47:39;;;;;;;8.95;2.58;;;;;;;;;;5282013;27;20010;-55
2024/04/09 08:50:04;;;;;;;5.50;1.50;;;;;;;;;;5284438;27;19998;-55
2024/04/09 08:52:32;;;;;;;7.32;1.70;;;;;;;;;;5315618;27;20088;-56
2024/04/09 08:54:57;;;;;;;7.20;1.75;;;;;;;;;;5316419;27;20013;-55
2024/04/09 08:57:23;;;;;;;6.85;1.40;;;;;;;;;;5283763;27;20009;-57
2024/04/09 08:59:48;;;;;;;4.57;1.65;;;;;;;;;;5283604;27;19998;-57
2024/04/09 09:02:14;;;;;;;9.25;1.63;;;;;;;;;;5309100;27;20309;-57
2024/04/09 09:04:40;;;;;;;5.80;1.40;;;;;;;;;;5317598;27;20422;-56
2024/04/09 09:07:05;;;;;;;7.20;1.50;;;;;;;;;;5317670;27;20004;-56
2024/04/09 09:09:31;;;;;;;4.35;1.40;;;;;;;;;;5317796;27;19998;-55
2024/04/09 09:12:01;;;;;;;6.68;1.52;;;;;;;;;;5293947;27;20289;-57
2024/04/09 09:14:26;;;;;;;6.82;1.30;;;;;;;;;;5283167;27;20023;-56
2024/04/09 09:16:51;;;;;;;6.55;1.30;;;;;;;;;;5281660;27;20404;-57
2024/04/09 09:19:16;;;;;;;6.70;1.23;;;;;;;;;;5315409;27;20014;-57
2024/04/09 09:21:42;;;;;;;4.78;1.30;;;;;;;;;;5317400;27;19998;-56
2024/04/09 09:24:07;;;;;;;8.48;1.38;;;;;;;;;;5317344;27;20038;-54
2024/04/09 09:26:32;;;;;;;8.07;1.40;;;;;;;;;;5317141;27;20417;-57
2024/04/09 09:29:01;;;;;;;4.05;1.15;;;;;;;;;;5309606;27;20001;-56
2024/04/09 09:31:27;;;;;;;6.22;1.50;;;;;;;;;;5317655;27;20299;-57
2024/04/09 09:33:55;;;;;;;6.10;1.60;;;;;;;;;;5317627;27;20002;-57
2024/04/09 09:36:20;;;;;;;5.20;1.55;;;;;;;;;;5315821;27;20384;-55
2024/04/09 09:38:46;;;;;;;5.20;1.30;;;;;;;;;;5302058;27;20009;-55
2024/04/09 09:41:11;;;;;;;8.05;1.58;;;;;;;;;;5317284;27;20008;-57
2024/04/09 09:43:37;;;;;;;6.65;1.30;;;;;;;;;;5316110;27;19994;-54
2024/04/09 09:46:03;;;;;;;12.48;2.45;;;;;;;;;;5283115;27;19995;-56
2024/04/09 09:48:29;;;;;;;8.15;1.20;;;;;;;;;;5300170;27;20014;-57
2024/04/09 09:50:56;;;;;;;16.85;1.70;;;;;;;;;;5317402;27;20008;-56
2024/04/09 09:53:21;;;;;;;7.70;1.30;;;;;;;;;;5316199;27;19998;-55
2024/04/09 09:55:48;;;;;;;6.45;1.70;;;;;;;;;;5317372;27;19994;-56
2024/04/09 09:58:20;;;;;;;7.80;1.50;;;;;;;;;;5307815;27;20018;-56
2024/04/09 10:00:46;;;;;;;6.97;1.42;;;;;;;;;;5282490;27;19998;-57
2024/04/09 10:03:11;;;;;;;8.82;1.70;;;;;;;;;;5309505;27;20030;-55
2024/04/09 10:05:38;;;;;;;6.47;1.80;;;;;;;;;;5280966;27;19994;-54
2024/04/09 10:08:13;;;;;;;8.77;2.05;;;;;;;;;;5282481;27;20013;-56
2024/04/09 10:10:39;;;;;;;9.30;1.83;;;;;;;;;;5314996;27;20020;-57
2024/04/09 10:13:07;;;;;;;7.57;1.83;;;;;;;;;;5317143;27;20420;-57
2024/04/09 10:15:32;;;;;;;8.18;1.40;;;;;;;;;;5316430;27;20009;-56
2024/04/09 10:18:04;;;;;;;6.93;1.20;;;;;;;;;;5297652;27;19998;-56
2024/04/09 10:20:30;;;;;;;5.70;1.48;;;;;;;;;;5314685;27;20407;-54
2024/04/09 10:22:57;;;;;;;7.43;1.75;;;;;;;;;;5316726;27;20001;-56
2024/04/09 10:25:23;;;;;;;7.55;1.90;;;;;;;;;;5316761;27;20005;-56
2024/04/09 10:28:13;;;;;;;6.35;1.55;;;;;;;;;;5316594;27;20403;-57
2024/04/09 10:30:42;;;;;;;6.53;1.70;;;;;;;;;;5310191;27;20072;-56
2024/04/09 10:33:08;;;;;;;6.05;1.95;;;;;;;;;;5312521;27;20478;-57
2024/04/09 10:35:33;;;;;;;8.20;1.60;;;;;;;;;;5282263;27;20002;-55
2024/04/09 10:38:05;;;;;;;8.35;1.70;;;;;;;;;;5304070;27;20013;-54
2024/04/09 10:40:33;;;;;;;6.47;1.85;;;;;;;;;;5284838;27;20027;-54
2024/04/09 10:43:02;;;;;;;8.07;1.40;;;;;;;;;;5282077;27;20077;-56
2024/04/09 10:45:28;;;;;;;12.43;1.95;;;;;;;;;;5282078;27;20074;-55
2024/04/09 10:47:53;;;;;;;6.90;1.60;;;;;;;;;;5282369;27;20038;-56
2024/04/09 10:50:18;;;;;;;6.00;1.48;;;;;;;;;;5282053;27;20006;-56
2024/04/09 10:52:44;;;;;;;8.30;1.85;;;;;;;;;;5281963;27;19994;-56
2024/04/09 10:55:10;;;;;;;10.50;1.83;;;;;;;;;;5279918;27;20013;-56
2024/04/09 10:57:35;;;;;;;7.60;1.88;;;;;;;;;;5302049;27;20102;-53
2024/04/09 11:00:09;;;;;;;6.53;1.40;;;;;;;;;;5287236;27;20395;-56
2024/04/09 11:02:36;;;;;;;7.40;1.23;;;;;;;;;;5288173;27;20005;-56
2024/04/09 11:05:02;;;;;;;6.07;1.33;;;;;;;;;;5282072;27;20034;-54
2024/04/09 11:07:27;;;;;;;7.15;1.50;;;;;;;;;;5282020;27;20013;-57
2024/04/09 11:09:52;;;;;;;5.57;1.50;;;;;;;;;;5282411;27;20006;-56
2024/04/09 11:12:18;;;;;;;10.35;1.73;;;;;;;;;;5281769;27;20014;-56
2024/04/09 11:14:43;;;;;;;9.93;1.90;;;;;;;;;;5281978;27;20002;-57
2024/04/09 11:17:15;;;;;;;9.50;1.50;;;;;;;;;;5298308;27;20298;-53
2024/04/09 11:19:40;;;;;;;9.15;1.52;;;;;;;;;;5290285;27;20006;-56
2024/04/09 11:22:05;;;;;;;4.68;1.30;;;;;;;;;;5315238;27;20097;-56
2024/04/09 11:24:31;;;;;;;9.15;1.65;;;;;;;;;;5315855;27;20011;-57
2024/04/09 11:26:56;;;;;;;6.95;1.63;;;;;;;;;;5315245;27;20000;-57
2024/04/09 11:29:22;;;;;;;8.15;1.52;;;;;;;;;;5312314;27;20005;-55
2024/04/09 11:31:49;;;;;;;7.05;1.58;;;;;;;;;;5316040;26;20008;-55
2024/04/09 11:34:28;;;;;;;5.57;1.48;;;;;;;;;;5315459;26;20291;-57
2024/04/09 11:36:53;;;;;;;7.05;1.60;;;;;;;;;;5297905;27;20465;-56
2024/04/09 11:39:19;;;;;;;8.63;1.70;;;;;;;;;;5301888;27;20002;-57
2024/04/09 11:41:45;;;;;;;12.80;1.73;;;;;;;;;;5313565;27;20410;-54
2024/04/09 11:44:10;;;;;;;5.88;1.70;;;;;;;;;;5308772;27;20012;-55
2024/04/09 11:46:35;;;;;;;8.45;1.80;;;;;;;;;;5281303;27;20005;-55
2024/04/09 11:49:00;;;;;;;8.68;1.40;;;;;;;;;;5292584;27;20013;-56
2024/04/09 11:51:25;;;;;;;6.60;1.20;;;;;;;;;;5281055;27;20002;-55
2024/04/09 11:53:51;;;;;;;7.05;1.90;;;;;;;;;;5281368;27;20026;-55
2024/04/09 11:56:16;;;;;;;9.82;1.67;;;;;;;;;;5293180;27;20019;-59
2024/04/09 11:58:47;;;;;;;8.18;1.70;;;;;;;;;;5298799;26;20006;-56
2024/04/09 12:01:12;;;;;;;11.63;1.92;;;;;;;;;;5280988;27;20073;-52
2024/04/09 12:03:39;;;;;;;7.63;1.77;;;;;;;;;;5280703;27;20002;-54
2024/04/09 12:06:04;;;;;;;6.20;1.60;;;;;;;;;;5281062;27;20010;-57
2024/04/09 12:08:29;;;;;;;7.00;1.58;;;;;;;;;;5294288;27;20076;-54
2024/04/09 12:10:54;;;;;;;9.05;1.90;;;;;;;;;;5295580;27;20013;-56
2024/04/09 12:13:19;;;;;;;6.30;1.48;;;;;;;;;;5281624;27;20003;-55
2024/04/09 12:15:45;;;;;;;7.03;1.52;;;;;;;;;;5280615;27;19998;-56
2024/04/09 12:18:10;;;;;;;10.07;1.77;;;;;;;;;;5282280;27;20020;-56
2024/04/09 12:20:36;;;;;;;7.28;2.00;;;;;;;;;;5280688;27;20311;-56
2024/04/09 12:23:03;;;;;;;5.15;1.60;;;;;;;;;;5280751;27;20312;-54
2024/04/09 12:25:28;;;;;;;4.10;1.23;;;;;;;;;;5280413;27;20120;-56
2024/04/09 12:27:53;;;;;;;7.28;1.73;;;;;;;;;;5280998;27;20010;-56
2024/04/09 12:30:19;;;;;;;10.50;1.83;;;;;;;;;;5280472;27;19994;-57
2024/04/09 12:32:44;;;;;;;7.70;1.65;;;;;;;;;;5281381;27;19999;-56
2024/04/09 12:35:10;;;;;;;8.45;1.35;;;;;;;;;;5312918;27;20010;-56
2024/04/09 12:37:35;;;;;;;7.53;1.55;;;;;;;;;;5313112;27;20005;-58
2024/04/09 12:40:00;;;;;;;8.48;1.70;;;;;;;;;;5305081;27;20007;-57
2024/04/09 12:42:26;;;;;;;7.32;1.75;;;;;;;;;;5308794;27;20302;-57
2024/04/09 12:44:52;;;;;;;9.63;1.58;;;;;;;;;;5314891;27;20001;-57
2024/04/09 12:47:19;;;;;;;11.75;2.20;;;;;;;;;;5297343;27;20349;-58
2024/04/09 12:49:44;;;;;;;7.18;1.77;;;;;;;;;;5280795;27;20010;-57
2024/04/09 12:52:10;;;;;;;8.32;1.67;;;;;;;;;;5280681;27;19999;-58
2024/04/09 12:54:35;;;;;;;8.27;1.75;;;;;;;;;;5280371;27;20008;-57
2024/04/09 12:57:01;;;;;;;12.32;1.95;;;;;;;;;;5285022;27;20005;-60
2024/04/09 12:59:34;;;;;;;7.00;1.58;;;;;;;;;;5305150;27;19993;-58
2024/04/09 13:01:59;;;;;;;10.50;1.77;;;;;;;;;;5305181;26;20010;-57
2024/04/09 13:04:27;;;;;;;13.40;2.00;;;;;;;;;;5311812;26;19994;-57
2024/04/09 13:06:53;;;;;;;13.57;2.05;;;;;;;;;;5312865;26;20414;-60
2024/04/09 13:09:18;;;;;;;14.38;1.52;;;;;;;;;;5298528;27;20002;-57
2024/04/09 13:11:43;;;;;;;11.38;1.92;;;;;;;;;;5279909;27;19998;-57
2024/04/09 13:14:09;;;;;;;20.38;2.10;;;;;;;;;;5280047;27;20065;-57
2024/04/09 13:16:38;;;;;;;11.60;2.05;;;;;;;;;;5279816;27;20419;-57
2024/04/09 13:19:04;;;;;;;12.55;2.53;;;;;;;;;;5307090;27;20002;-54
2024/04/09 13:21:29;;;;;;;12.80;2.00;;;;;;;;;;5313536;27;20287;-56
2024/04/09 13:23:54;;;;;;;10.40;1.73;;;;;;;;;;5313754;27;20082;-56
2024/04/09 13:26:20;;;;;;;6.93;1.30;;;;;;;;;;5313834;27;20016;-57
2024/04/09 13:28:45;;;;;;;12.23;2.00;;;;;;;;;;5296479;27;20014;-57
2024/04/09 13:31:10;;;;;;;10.77;1.88;;;;;;;;;;5283580;27;19994;-57
2024/04/09 13:33:36;;;;;;;11.10;2.10;;;;;;;;;;5283327;27;20009;-57
2024/04/09 13:36:01;;;;;;;8.93;2.05;;;;;;;;;;5283294;27;20013;-56
2024/04/09 13:38:27;;;;;;;14.20;1.80;;;;;;;;;;5313658;27;20403;-57
2024/04/09 13:40:52;;;;;;;7.53;1.85;;;;;;;;;;5317115;27;19993;-57
2024/04/09 13:43:18;;;;;;;10.27;1.83;;;;;;;;;;5316202;27;19994;-57
2024/04/09 13:45:43;;;;;;;9.90;1.95;;;;;;;;;;5317174;27;20005;-56
2024/04/09 13:48:08;;;;;;;13.73;2.08;;;;;;;;;;5291044;27;19998;-57
2024/04/09 13:50:34;;;;;;;8.77;2.00;;;;;;;;;;5284713;27;19998;-57
2024/04/09 13:52:59;;;;;;;10.60;1.80;;;;;;;;;;5317170;27;20407;-55
2024/04/09 13:55:25;;;;;;;13.77;2.13;;;;;;;;;;5316857;27;19993;-53
2024/04/09 13:57:52;;;;;;;11.05;2.03;;;;;;;;;;5317063;27;19993;-54
2024/04/09 14:00:17;;;;;;;7.47;1.75;;;;;;;;;;5314409;27;20001;-56
2024/04/09 14:02:43;;;;;;;10.57;2.58;;;;;;;;;;5314978;27;20024;-57
2024/04/09 14:05:08;;;;;;;12.38;1.80;;;;;;;;;;5298772;27;20014;-57
2024/04/09 14:07:33;;;;;;;10.93;2.38;;;;;;;;;;5282529;27;20066;-56
2024/04/09 14:09:58;;;;;;;7.50;1.98;;;;;;;;;;5289703;27;20022;-57
2024/04/09 14:12:24;;;;;;;7.90;1.70;;;;;;;;;;5282414;27;20026;-55
2024/04/09 14:14:49;;;;;;;10.88;2.10;;;;;;;;;;5282426;27;20291;-54
2024/04/09 14:17:14;;;;;;;8.38;2.28;;;;;;;;;;5282234;27;19994;-56
2024/04/09 14:19:40;;;;;;;12.00;1.90;;;;;;;;;;5280768;27;20021;-57
2024/04/09 14:22:05;;;;;;;7.40;1.80;;;;;;;;;;5300997;27;20019;-57
2024/04/09 14:24:30;;;;;;;17.42;2.45;;;;;;;;;;5286069;27;20005;-55
2024/04/09 14:26:56;;;;;;;8.90;1.98;;;;;;;;;;5316289;27;19994;-56
2024/04/09 14:29:21;;;;;;;8.77;1.77;;;;;;;;;;5316616;27;20012;-54